sensor_id;sensor_type;location;lat;lon;timestamp;P1;durP1;ratioP1;P2;durP2;ratioP2
16579;SDS011;8402;51.466;6.806;2023-07-22T00:00:26;10.47;;;6.73;;
16579;SDS011;8402;51.466;6.806;2023-07-22T00:02:57;10.77;;;7.30;;
16579;SDS011;8402;51.466;6.806;2023-07-22T00:05:28;11.37;;;7.03;;
16579;SDS011;8402;51.466;6.806;2023-07-22T00:08:00;10.90;;;6.73;;
16579;SDS011;8402;51.466;6.806;2023-07-22T00:10:30;14.33;;;7.10;;
16579;SDS011;8402;51.466;6.806;2023-07-22T00:13:00;12.57;;;6.57;;
16579;SDS011;8402;51.466;6.806;2023-07-22T00:15:30;11.27;;;7.00;;
16579;SDS011;8402;51.466;6.806;2023-07-22T00:18:00;13.30;;;7.00;;
16579;SDS011;8402;51.466;6.806;2023-07-22T00:20:30;11.03;;;6.93;;
16579;SDS011;8402;51.466;6.806;2023-07-22T00:23:02;11.80;;;6.73;;
16579;SDS011;8402;51.466;6.806;2023-07-22T00:25:32;11.20;;;6.10;;
16579;SDS011;8402;51.466;6.806;2023-07-22T00:28:02;10.57;;;6.57;;
16579;SDS011;8402;51.466;6.806;2023-07-22T00:30:33;10.30;;;6.93;;
16579;SDS011;8402;51.466;6.806;2023-07-22T00:33:04;9.70;;;6.50;;
16579;SDS011;8402;51.466;6.806;2023-07-22T00:35:35;10.30;;;6.17;;
16579;SDS011;8402;51.466;6.806;2023-07-22T00:38:08;11.57;;;6.77;;
16579;SDS011;8402;51.466;6.806;2023-07-22T00:40:37;11.30;;;6.60;;
16579;SDS011;8402;51.466;6.806;2023-07-22T00:43:07;11.00;;;6.17;;
16579;SDS011;8402;51.466;6.806;2023-07-22T00:45:37;11.00;;;6.93;;
16579;SDS011;8402;51.466;6.806;2023-07-22T00:48:08;9.87;;;6.43;;
16579;SDS011;8402;51.466;6.806;2023-07-22T00:50:39;12.33;;;6.43;;
16579;SDS011;8402;51.466;6.806;2023-07-22T00:53:12;13.57;;;6.53;;
16579;SDS011;8402;51.466;6.806;2023-07-22T00:55:44;9.83;;;6.40;;
16579;SDS011;8402;51.466;6.806;2023-07-22T00:58:15;10.73;;;6.20;;
16579;SDS011;8402;51.466;6.806;2023-07-22T01:00:45;10.03;;;6.40;;
16579;SDS011;8402;51.466;6.806;2023-07-22T01:03:15;10.67;;;5.90;;
16579;SDS011;8402;51.466;6.806;2023-07-22T01:05:46;13.57;;;6.50;;
16579;SDS011;8402;51.466;6.806;2023-07-22T01:08:21;10.33;;;6.13;;
16579;SDS011;8402;51.466;6.806;2023-07-22T01:10:51;11.93;;;6.73;;
16579;SDS011;8402;51.466;6.806;2023-07-22T01:13:21;12.80;;;6.83;;
16579;SDS011;8402;51.466;6.806;2023-07-22T01:15:51;11.60;;;6.33;;
16579;SDS011;8402;51.466;6.806;2023-07-22T01:18:21;11.47;;;6.27;;
16579;SDS011;8402;51.466;6.806;2023-07-22T01:20:51;17.93;;;6.10;;
16579;SDS011;8402;51.466;6.806;2023-07-22T01:23:24;11.67;;;6.17;;
16579;SDS011;8402;51.466;6.806;2023-07-22T01:25:54;10.23;;;5.77;;
16579;SDS011;8402;51.466;6.806;2023-07-22T01:28:25;9.47;;;6.10;;
16579;SDS011;8402;51.466;6.806;2023-07-22T01:30:55;10.43;;;6.20;;
16579;SDS011;8402;51.466;6.806;2023-07-22T01:33:25;10.73;;;6.10;;
16579;SDS011;8402;51.466;6.806;2023-07-22T01:35:54;12.33;;;6.80;;
16579;SDS011;8402;51.466;6.806;2023-07-22T01:38:27;13.87;;;5.87;;
16579;SDS011;8402;51.466;6.806;2023-07-22T01:40:58;11.03;;;6.20;;
16579;SDS011;8402;51.466;6.806;2023-07-22T01:43:28;11.70;;;6.33;;
16579;SDS011;8402;51.466;6.806;2023-07-22T01:45:57;12.33;;;6.27;;
16579;SDS011;8402;51.466;6.806;2023-07-22T01:48:28;10.90;;;6.77;;
16579;SDS011;8402;51.466;6.806;2023-07-22T01:50:58;10.97;;;6.20;;
16579;SDS011;8402;51.466;6.806;2023-07-22T01:53:32;11.13;;;6.47;;
16579;SDS011;8402;51.466;6.806;2023-07-22T01:56:02;12.50;;;6.67;;
16579;SDS011;8402;51.466;6.806;2023-07-22T01:58:32;12.50;;;6.63;;
16579;SDS011;8402;51.466;6.806;2023-07-22T02:01:02;10.90;;;6.37;;
16579;SDS011;8402;51.466;6.806;2023-07-22T02:03:37;10.60;;;6.13;;
16579;SDS011;8402;51.466;6.806;2023-07-22T02:06:07;11.13;;;6.57;;
16579;SDS011;8402;51.466;6.806;2023-07-22T02:08:39;10.43;;;6.50;;
16579;SDS011;8402;51.466;6.806;2023-07-22T02:11:10;11.50;;;6.10;;
16579;SDS011;8402;51.466;6.806;2023-07-22T02:13:40;12.43;;;6.90;;
16579;SDS011;8402;51.466;6.806;2023-07-22T02:16:10;11.10;;;6.23;;
16579;SDS011;8402;51.466;6.806;2023-07-22T02:18:40;11.93;;;6.90;;
16579;SDS011;8402;51.466;6.806;2023-07-22T02:21:10;10.87;;;6.67;;
16579;SDS011;8402;51.466;6.806;2023-07-22T02:23:43;15.83;;;6.53;;
16579;SDS011;8402;51.466;6.806;2023-07-22T02:26:12;9.73;;;6.40;;
16579;SDS011;8402;51.466;6.806;2023-07-22T02:28:42;12.07;;;6.97;;
16579;SDS011;8402;51.466;6.806;2023-07-22T02:31:13;12.37;;;6.40;;
16579;SDS011;8402;51.466;6.806;2023-07-22T02:33:43;15.63;;;6.70;;
16579;SDS011;8402;51.466;6.806;2023-07-22T02:36:13;12.13;;;7.03;;
16579;SDS011;8402;51.466;6.806;2023-07-22T02:38:45;9.97;;;6.43;;
16579;SDS011;8402;51.466;6.806;2023-07-22T02:41:15;13.10;;;6.23;;
16579;SDS011;8402;51.466;6.806;2023-07-22T02:43:45;12.63;;;6.67;;
16579;SDS011;8402;51.466;6.806;2023-07-22T02:46:15;12.53;;;6.90;;
16579;SDS011;8402;51.466;6.806;2023-07-22T02:48:45;10.27;;;6.50;;
16579;SDS011;8402;51.466;6.806;2023-07-22T02:51:15;12.13;;;7.17;;
16579;SDS011;8402;51.466;6.806;2023-07-22T02:53:48;9.87;;;6.23;;
16579;SDS011;8402;51.466;6.806;2023-07-22T02:56:18;16.03;;;6.53;;
16579;SDS011;8402;51.466;6.806;2023-07-22T02:58:48;10.43;;;6.47;;
16579;SDS011;8402;51.466;6.806;2023-07-22T03:01:18;12.47;;;6.00;;
16579;SDS011;8402;51.466;6.806;2023-07-22T03:03:51;9.83;;;6.17;;
16579;SDS011;8402;51.466;6.806;2023-07-22T03:06:20;12.00;;;6.60;;
16579;SDS011;8402;51.466;6.806;2023-07-22T03:08:56;11.20;;;6.40;;
16579;SDS011;8402;51.466;6.806;2023-07-22T03:11:26;11.30;;;6.53;;
16579;SDS011;8402;51.466;6.806;2023-07-22T03:13:56;11.90;;;6.13;;
16579;SDS011;8402;51.466;6.806;2023-07-22T03:16:28;10.17;;;6.37;;
16579;SDS011;8402;51.466;6.806;2023-07-22T03:18:58;9.57;;;5.77;;
16579;SDS011;8402;51.466;6.806;2023-07-22T03:21:28;13.73;;;6.70;;
16579;SDS011;8402;51.466;6.806;2023-07-22T03:24:01;16.03;;;7.13;;
16579;SDS011;8402;51.466;6.806;2023-07-22T03:26:32;10.60;;;6.07;;
16579;SDS011;8402;51.466;6.806;2023-07-22T03:29:02;14.20;;;6.27;;
16579;SDS011;8402;51.466;6.806;2023-07-22T03:31:32;9.60;;;6.03;;
16579;SDS011;8402;51.466;6.806;2023-07-22T03:34:02;11.47;;;6.27;;
16579;SDS011;8402;51.466;6.806;2023-07-22T03:36:32;11.27;;;6.13;;
16579;SDS011;8402;51.466;6.806;2023-07-22T03:39:05;10.97;;;5.83;;
16579;SDS011;8402;51.466;6.806;2023-07-22T03:41:35;12.23;;;6.07;;
16579;SDS011;8402;51.466;6.806;2023-07-22T03:44:05;10.60;;;6.03;;
16579;SDS011;8402;51.466;6.806;2023-07-22T03:46:35;9.87;;;5.63;;
16579;SDS011;8402;51.466;6.806;2023-07-22T03:49:05;10.07;;;6.20;;
16579;SDS011;8402;51.466;6.806;2023-07-22T03:51:34;11.50;;;5.97;;
16579;SDS011;8402;51.466;6.806;2023-07-22T03:54:07;12.47;;;6.60;;
16579;SDS011;8402;51.466;6.806;2023-07-22T03:56:39;13.73;;;5.87;;
16579;SDS011;8402;51.466;6.806;2023-07-22T03:59:10;13.20;;;6.40;;
16579;SDS011;8402;51.466;6.806;2023-07-22T04:01:40;12.27;;;6.63;;
16579;SDS011;8402;51.466;6.806;2023-07-22T04:04:10;14.80;;;5.97;;
16579;SDS011;8402;51.466;6.806;2023-07-22T04:06:40;15.37;;;6.63;;
16579;SDS011;8402;51.466;6.806;2023-07-22T04:09:13;14.77;;;5.93;;
16579;SDS011;8402;51.466;6.806;2023-07-22T04:11:43;12.83;;;5.90;;
16579;SDS011;8402;51.466;6.806;2023-07-22T04:14:13;15.30;;;6.10;;
16579;SDS011;8402;51.466;6.806;2023-07-22T04:16:43;11.23;;;6.13;;
16579;SDS011;8402;51.466;6.806;2023-07-22T04:19:13;12.77;;;6.40;;
16579;SDS011;8402;51.466;6.806;2023-07-22T04:21:45;10.27;;;5.50;;
16579;SDS011;8402;51.466;6.806;2023-07-22T04:24:17;13.37;;;6.43;;
16579;SDS011;8402;51.466;6.806;2023-07-22T04:26:47;14.00;;;6.50;;
16579;SDS011;8402;51.466;6.806;2023-07-22T04:29:17;17.37;;;6.63;;
16579;SDS011;8402;51.466;6.806;2023-07-22T04:31:47;11.13;;;6.37;;
16579;SDS011;8402;51.466;6.806;2023-07-22T04:34:17;12.57;;;5.60;;
16579;SDS011;8402;51.466;6.806;2023-07-22T04:36:52;14.60;;;6.17;;
16579;SDS011;8402;51.466;6.806;2023-07-22T04:39:25;9.70;;;5.97;;
16579;SDS011;8402;51.466;6.806;2023-07-22T04:41:55;9.57;;;6.13;;
16579;SDS011;8402;51.466;6.806;2023-07-22T04:44:25;13.73;;;6.37;;
16579;SDS011;8402;51.466;6.806;2023-07-22T04:46:56;14.03;;;6.53;;
16579;SDS011;8402;51.466;6.806;2023-07-22T04:49:26;13.63;;;5.87;;
16579;SDS011;8402;51.466;6.806;2023-07-22T04:51:56;10.20;;;6.10;;
16579;SDS011;8402;51.466;6.806;2023-07-22T04:54:29;11.17;;;6.80;;
16579;SDS011;8402;51.466;6.806;2023-07-22T04:56:59;10.83;;;6.43;;
16579;SDS011;8402;51.466;6.806;2023-07-22T04:59:29;13.73;;;6.50;;
16579;SDS011;8402;51.466;6.806;2023-07-22T05:01:59;10.10;;;5.83;;
16579;SDS011;8402;51.466;6.806;2023-07-22T05:04:29;17.33;;;5.93;;
16579;SDS011;8402;51.466;6.806;2023-07-22T05:06:59;12.43;;;6.00;;
16579;SDS011;8402;51.466;6.806;2023-07-22T05:09:31;11.93;;;6.00;;
16579;SDS011;8402;51.466;6.806;2023-07-22T05:12:01;10.47;;;5.83;;
16579;SDS011;8402;51.466;6.806;2023-07-22T05:14:32;9.43;;;5.80;;
16579;SDS011;8402;51.466;6.806;2023-07-22T05:17:01;10.07;;;5.80;;
16579;SDS011;8402;51.466;6.806;2023-07-22T05:19:32;11.30;;;5.77;;
16579;SDS011;8402;51.466;6.806;2023-07-22T05:22:02;12.73;;;6.23;;
16579;SDS011;8402;51.466;6.806;2023-07-22T05:24:36;10.13;;;6.13;;
16579;SDS011;8402;51.466;6.806;2023-07-22T05:27:06;13.30;;;6.13;;
16579;SDS011;8402;51.466;6.806;2023-07-22T05:29:36;11.80;;;5.77;;
16579;SDS011;8402;51.466;6.806;2023-07-22T05:32:06;11.93;;;6.20;;
16579;SDS011;8402;51.466;6.806;2023-07-22T05:34:53;11.20;;;5.57;;
16579;SDS011;8402;51.466;6.806;2023-07-22T05:37:22;9.93;;;5.83;;
16579;SDS011;8402;51.466;6.806;2023-07-22T05:39:58;9.47;;;5.83;;
16579;SDS011;8402;51.466;6.806;2023-07-22T05:42:28;11.33;;;5.60;;
16579;SDS011;8402;51.466;6.806;2023-07-22T05:44:58;13.87;;;5.73;;
16579;SDS011;8402;51.466;6.806;2023-07-22T05:47:29;13.17;;;6.37;;
16579;SDS011;8402;51.466;6.806;2023-07-22T05:49:59;11.30;;;5.87;;
16579;SDS011;8402;51.466;6.806;2023-07-22T05:52:30;11.27;;;5.40;;
16579;SDS011;8402;51.466;6.806;2023-07-22T05:55:03;10.50;;;5.70;;
16579;SDS011;8402;51.466;6.806;2023-07-22T05:57:34;14.93;;;6.40;;
16579;SDS011;8402;51.466;6.806;2023-07-22T06:00:04;11.43;;;6.17;;
16579;SDS011;8402;51.466;6.806;2023-07-22T06:02:36;11.10;;;6.33;;
16579;SDS011;8402;51.466;6.806;2023-07-22T06:05:06;14.77;;;6.83;;
16579;SDS011;8402;51.466;6.806;2023-07-22T06:07:37;17.00;;;6.67;;
16579;SDS011;8402;51.466;6.806;2023-07-22T06:10:09;12.90;;;6.50;;
16579;SDS011;8402;51.466;6.806;2023-07-22T06:12:39;12.73;;;6.93;;
16579;SDS011;8402;51.466;6.806;2023-07-22T06:15:09;14.10;;;6.50;;
16579;SDS011;8402;51.466;6.806;2023-07-22T06:17:39;11.97;;;6.33;;
16579;SDS011;8402;51.466;6.806;2023-07-22T06:20:10;13.37;;;6.83;;
16579;SDS011;8402;51.466;6.806;2023-07-22T06:22:40;16.43;;;7.10;;
16579;SDS011;8402;51.466;6.806;2023-07-22T06:25:14;12.23;;;6.47;;
16579;SDS011;8402;51.466;6.806;2023-07-22T06:27:44;20.27;;;8.20;;
16579;SDS011;8402;51.466;6.806;2023-07-22T06:30:14;14.73;;;6.60;;
16579;SDS011;8402;51.466;6.806;2023-07-22T06:32:44;16.13;;;6.73;;
16579;SDS011;8402;51.466;6.806;2023-07-22T06:35:16;15.00;;;7.00;;
16579;SDS011;8402;51.466;6.806;2023-07-22T06:37:46;9.47;;;6.10;;
16579;SDS011;8402;51.466;6.806;2023-07-22T06:40:18;19.10;;;7.07;;
16579;SDS011;8402;51.466;6.806;2023-07-22T06:42:49;13.83;;;6.40;;
16579;SDS011;8402;51.466;6.806;2023-07-22T06:45:18;13.63;;;7.47;;
16579;SDS011;8402;51.466;6.806;2023-07-22T06:47:48;15.87;;;6.90;;
16579;SDS011;8402;51.466;6.806;2023-07-22T06:50:18;13.93;;;6.50;;
16579;SDS011;8402;51.466;6.806;2023-07-22T06:52:48;13.33;;;7.20;;
16579;SDS011;8402;51.466;6.806;2023-07-22T06:55:21;13.93;;;7.18;;
16579;SDS011;8402;51.466;6.806;2023-07-22T06:57:50;11.60;;;6.70;;
16579;SDS011;8402;51.466;6.806;2023-07-22T07:00:20;15.20;;;6.88;;
16579;SDS011;8402;51.466;6.806;2023-07-22T07:02:50;12.25;;;5.85;;
16579;SDS011;8402;51.466;6.806;2023-07-22T07:05:21;14.65;;;6.45;;
16579;SDS011;8402;51.466;6.806;2023-07-22T07:07:54;10.55;;;6.22;;
16579;SDS011;8402;51.466;6.806;2023-07-22T07:10:26;8.80;;;5.80;;
16579;SDS011;8402;51.466;6.806;2023-07-22T07:12:57;11.02;;;6.00;;
16579;SDS011;8402;51.466;6.806;2023-07-22T07:15:26;13.88;;;7.20;;
16579;SDS011;8402;51.466;6.806;2023-07-22T07:17:56;12.93;;;5.85;;
16579;SDS011;8402;51.466;6.806;2023-07-22T07:20:26;11.65;;;6.72;;
16579;SDS011;8402;51.466;6.806;2023-07-22T07:22:56;10.65;;;6.18;;
16579;SDS011;8402;51.466;6.806;2023-07-22T07:25:29;14.68;;;6.60;;
16579;SDS011;8402;51.466;6.806;2023-07-22T07:27:59;15.38;;;6.90;;
16579;SDS011;8402;51.466;6.806;2023-07-22T07:30:29;11.43;;;6.32;;
16579;SDS011;8402;51.466;6.806;2023-07-22T07:32:59;13.57;;;6.75;;
16579;SDS011;8402;51.466;6.806;2023-07-22T07:35:28;11.63;;;6.40;;
16579;SDS011;8402;51.466;6.806;2023-07-22T07:37:58;12.38;;;7.50;;
16579;SDS011;8402;51.466;6.806;2023-07-22T07:40:31;13.13;;;7.18;;
16579;SDS011;8402;51.466;6.806;2023-07-22T07:43:01;13.05;;;7.30;;
16579;SDS011;8402;51.466;6.806;2023-07-22T07:45:31;15.25;;;7.25;;
16579;SDS011;8402;51.466;6.806;2023-07-22T07:48:01;16.33;;;7.15;;
16579;SDS011;8402;51.466;6.806;2023-07-22T07:50:32;13.57;;;6.95;;
16579;SDS011;8402;51.466;6.806;2023-07-22T07:53:02;12.13;;;6.63;;
16579;SDS011;8402;51.466;6.806;2023-07-22T07:55:34;12.73;;;7.25;;
16579;SDS011;8402;51.466;6.806;2023-07-22T07:58:07;13.00;;;6.97;;
16579;SDS011;8402;51.466;6.806;2023-07-22T08:00:37;14.25;;;6.75;;
16579;SDS011;8402;51.466;6.806;2023-07-22T08:03:07;11.80;;;6.93;;
16579;SDS011;8402;51.466;6.806;2023-07-22T08:05:37;11.18;;;6.35;;
16579;SDS011;8402;51.466;6.806;2023-07-22T08:08:07;13.63;;;6.65;;
16579;SDS011;8402;51.466;6.806;2023-07-22T08:10:40;14.15;;;7.07;;
16579;SDS011;8402;51.466;6.806;2023-07-22T08:13:11;9.80;;;6.47;;
16579;SDS011;8402;51.466;6.806;2023-07-22T08:15:40;13.32;;;7.03;;
16579;SDS011;8402;51.466;6.806;2023-07-22T08:18:10;13.18;;;7.05;;
16579;SDS011;8402;51.466;6.806;2023-07-22T08:20:40;10.68;;;6.28;;
16579;SDS011;8402;51.466;6.806;2023-07-22T08:23:13;13.57;;;7.05;;
16579;SDS011;8402;51.466;6.806;2023-07-22T08:25:46;15.10;;;7.65;;
16579;SDS011;8402;51.466;6.806;2023-07-22T08:28:16;14.75;;;6.50;;
16579;SDS011;8402;51.466;6.806;2023-07-22T08:30:47;12.23;;;6.40;;
16579;SDS011;8402;51.466;6.806;2023-07-22T08:33:17;10.90;;;6.20;;
16579;SDS011;8402;51.466;6.806;2023-07-22T08:36:04;10.80;;;6.53;;
16579;SDS011;8402;51.466;6.806;2023-07-22T08:38:34;8.20;;;5.65;;
16579;SDS011;8402;51.466;6.806;2023-07-22T08:41:07;8.65;;;5.93;;
16579;SDS011;8402;51.466;6.806;2023-07-22T08:43:37;9.52;;;6.25;;
16579;SDS011;8402;51.466;6.806;2023-07-22T08:46:09;8.98;;;5.65;;
16579;SDS011;8402;51.466;6.806;2023-07-22T08:48:41;11.88;;;6.13;;
16579;SDS011;8402;51.466;6.806;2023-07-22T08:51:12;10.32;;;5.65;;
16579;SDS011;8402;51.466;6.806;2023-07-22T08:53:46;7.63;;;5.50;;
16579;SDS011;8402;51.466;6.806;2023-07-22T08:56:22;8.32;;;5.18;;
16579;SDS011;8402;51.466;6.806;2023-07-22T08:58:53;9.07;;;4.68;;
16579;SDS011;8402;51.466;6.806;2023-07-22T09:01:24;7.70;;;5.05;;
16579;SDS011;8402;51.466;6.806;2023-07-22T09:03:54;6.60;;;4.53;;
16579;SDS011;8402;51.466;6.806;2023-07-22T09:06:25;7.20;;;5.03;;
16579;SDS011;8402;51.466;6.806;2023-07-22T09:08:55;6.85;;;4.72;;
16579;SDS011;8402;51.466;6.806;2023-07-22T09:11:28;8.80;;;4.93;;
16579;SDS011;8402;51.466;6.806;2023-07-22T09:13:58;7.45;;;4.65;;
16579;SDS011;8402;51.466;6.806;2023-07-22T09:16:31;6.22;;;4.50;;
16579;SDS011;8402;51.466;6.806;2023-07-22T09:19:03;8.15;;;4.25;;
16579;SDS011;8402;51.466;6.806;2023-07-22T09:21:33;7.18;;;4.15;;
16579;SDS011;8402;51.466;6.806;2023-07-22T09:24:19;6.35;;;4.35;;
16579;SDS011;8402;51.466;6.806;2023-07-22T09:26:53;5.93;;;4.00;;
16579;SDS011;8402;51.466;6.806;2023-07-22T09:29:32;7.13;;;4.13;;
16579;SDS011;8402;51.466;6.806;2023-07-22T09:32:03;5.55;;;3.80;;
16579;SDS011;8402;51.466;6.806;2023-07-22T09:34:34;7.25;;;3.97;;
16579;SDS011;8402;51.466;6.806;2023-07-22T09:37:04;7.03;;;3.50;;
16579;SDS011;8402;51.466;6.806;2023-07-22T09:39:34;6.47;;;3.95;;
16579;SDS011;8402;51.466;6.806;2023-07-22T09:42:07;6.93;;;3.97;;
16579;SDS011;8402;51.466;6.806;2023-07-22T09:44:37;5.82;;;3.30;;
16579;SDS011;8402;51.466;6.806;2023-07-22T09:47:07;5.03;;;3.42;;
16579;SDS011;8402;51.466;6.806;2023-07-22T09:49:40;5.45;;;3.47;;
16579;SDS011;8402;51.466;6.806;2023-07-22T09:52:11;5.32;;;3.10;;
16579;SDS011;8402;51.466;6.806;2023-07-22T09:54:48;6.22;;;3.47;;
16579;SDS011;8402;51.466;6.806;2023-07-22T09:57:21;6.95;;;3.40;;
16579;SDS011;8402;51.466;6.806;2023-07-22T09:59:51;6.15;;;3.55;;
16579;SDS011;8402;51.466;6.806;2023-07-22T10:02:22;6.70;;;3.72;;
16579;SDS011;8402;51.466;6.806;2023-07-22T10:04:53;4.68;;;3.00;;
16579;SDS011;8402;51.466;6.806;2023-07-22T10:07:27;4.00;;;3.22;;
16579;SDS011;8402;51.466;6.806;2023-07-22T10:09:57;5.22;;;2.95;;
16579;SDS011;8402;51.466;6.806;2023-07-22T10:12:30;5.30;;;3.20;;
16579;SDS011;8402;51.466;6.806;2023-07-22T10:15:00;4.72;;;3.05;;
16579;SDS011;8402;51.466;6.806;2023-07-22T10:17:32;6.22;;;3.70;;
16579;SDS011;8402;51.466;6.806;2023-07-22T10:20:02;6.00;;;3.22;;
16579;SDS011;8402;51.466;6.806;2023-07-22T10:22:35;6.25;;;3.17;;
16579;SDS011;8402;51.466;6.806;2023-07-22T10:25:06;4.32;;;3.15;;
16579;SDS011;8402;51.466;6.806;2023-07-22T10:27:39;6.07;;;3.17;;
16579;SDS011;8402;51.466;6.806;2023-07-22T10:30:10;6.40;;;3.78;;
16579;SDS011;8402;51.466;6.806;2023-07-22T10:32:42;5.15;;;3.35;;
16579;SDS011;8402;51.466;6.806;2023-07-22T10:35:16;5.35;;;3.08;;
16579;SDS011;8402;51.466;6.806;2023-07-22T10:37:52;4.18;;;3.00;;
16579;SDS011;8402;51.466;6.806;2023-07-22T10:40:25;4.93;;;3.00;;
16579;SDS011;8402;51.466;6.806;2023-07-22T10:43:00;6.45;;;3.33;;
16579;SDS011;8402;51.466;6.806;2023-07-22T10:45:33;4.07;;;2.80;;
16579;SDS011;8402;51.466;6.806;2023-07-22T10:48:10;3.20;;;2.70;;
16579;SDS011;8402;51.466;6.806;2023-07-22T10:50:41;4.22;;;2.15;;
16579;SDS011;8402;51.466;6.806;2023-07-22T10:53:14;4.25;;;2.67;;
16579;SDS011;8402;51.466;6.806;2023-07-22T10:56:02;4.25;;;2.50;;
16579;SDS011;8402;51.466;6.806;2023-07-22T10:58:54;4.60;;;2.72;;
16579;SDS011;8402;51.466;6.806;2023-07-22T11:01:36;2.80;;;2.35;;
16579;SDS011;8402;51.466;6.806;2023-07-22T11:04:08;3.35;;;2.42;;
16579;SDS011;8402;51.466;6.806;2023-07-22T11:07:30;4.80;;;2.40;;
16579;SDS011;8402;51.466;6.806;2023-07-22T11:10:11;5.20;;;2.75;;
16579;SDS011;8402;51.466;6.806;2023-07-22T11:12:43;4.20;;;2.70;;
16579;SDS011;8402;51.466;6.806;2023-07-22T11:15:14;2.85;;;2.40;;
16579;SDS011;8402;51.466;6.806;2023-07-22T11:17:45;3.88;;;2.50;;
16579;SDS011;8402;51.466;6.806;2023-07-22T11:20:15;4.50;;;2.72;;
16579;SDS011;8402;51.466;6.806;2023-07-22T11:22:45;3.53;;;2.20;;
16579;SDS011;8402;51.466;6.806;2023-07-22T11:25:18;4.18;;;2.40;;
16579;SDS011;8402;51.466;6.806;2023-07-22T11:27:48;3.10;;;2.17;;
16579;SDS011;8402;51.466;6.806;2023-07-22T11:30:21;4.55;;;1.85;;
16579;SDS011;8402;51.466;6.806;2023-07-22T11:32:52;3.33;;;2.28;;
16579;SDS011;8402;51.466;6.806;2023-07-22T11:35:22;4.25;;;2.10;;
16579;SDS011;8402;51.466;6.806;2023-07-22T11:37:59;4.20;;;2.17;;
16579;SDS011;8402;51.466;6.806;2023-07-22T11:40:32;8.05;;;2.97;;
16579;SDS011;8402;51.466;6.806;2023-07-22T11:43:02;3.58;;;2.50;;
16579;SDS011;8402;51.466;6.806;2023-07-22T11:45:36;5.38;;;2.45;;
16579;SDS011;8402;51.466;6.806;2023-07-22T11:48:11;3.92;;;2.40;;
16579;SDS011;8402;51.466;6.806;2023-07-22T11:50:41;5.95;;;2.53;;
16579;SDS011;8402;51.466;6.806;2023-07-22T11:53:12;3.33;;;2.15;;
16579;SDS011;8402;51.466;6.806;2023-07-22T11:55:41;5.00;;;2.17;;
16579;SDS011;8402;51.466;6.806;2023-07-22T11:58:13;3.85;;;2.58;;
16579;SDS011;8402;51.466;6.806;2023-07-22T12:00:45;5.85;;;2.45;;
16579;SDS011;8402;51.466;6.806;2023-07-22T12:03:31;3.42;;;2.40;;
16579;SDS011;8402;51.466;6.806;2023-07-22T12:06:02;3.30;;;2.05;;
16579;SDS011;8402;51.466;6.806;2023-07-22T12:08:32;2.95;;;2.00;;
16579;SDS011;8402;51.466;6.806;2023-07-22T12:11:02;3.60;;;1.80;;
16579;SDS011;8402;51.466;6.806;2023-07-22T12:13:36;2.05;;;1.60;;
16579;SDS011;8402;51.466;6.806;2023-07-22T12:16:09;4.90;;;1.75;;
16579;SDS011;8402;51.466;6.806;2023-07-22T12:18:42;2.20;;;1.70;;
16579;SDS011;8402;51.466;6.806;2023-07-22T12:21:13;3.35;;;1.90;;
16579;SDS011;8402;51.466;6.806;2023-07-22T12:23:43;2.70;;;1.85;;
16579;SDS011;8402;51.466;6.806;2023-07-22T12:26:14;3.72;;;1.90;;
16579;SDS011;8402;51.466;6.806;2023-07-22T12:28:44;3.22;;;1.85;;
16579;SDS011;8402;51.466;6.806;2023-07-22T12:31:17;3.15;;;2.08;;
16579;SDS011;8402;51.466;6.806;2023-07-22T12:33:47;2.58;;;2.10;;
16579;SDS011;8402;51.466;6.806;2023-07-22T12:36:17;4.80;;;2.13;;
16579;SDS011;8402;51.466;6.806;2023-07-22T12:38:47;3.15;;;2.25;;
16579;SDS011;8402;51.466;6.806;2023-07-22T12:41:16;4.32;;;2.22;;
16579;SDS011;8402;51.466;6.806;2023-07-22T12:43:46;3.65;;;2.25;;
16579;SDS011;8402;51.466;6.806;2023-07-22T12:46:19;3.53;;;2.30;;
16579;SDS011;8402;51.466;6.806;2023-07-22T12:48:49;3.13;;;2.35;;
16579;SDS011;8402;51.466;6.806;2023-07-22T12:51:19;3.15;;;2.08;;
16579;SDS011;8402;51.466;6.806;2023-07-22T12:53:49;7.00;;;2.70;;
16579;SDS011;8402;51.466;6.806;2023-07-22T12:56:19;3.17;;;2.50;;
16579;SDS011;8402;51.466;6.806;2023-07-22T12:58:49;3.25;;;2.20;;
16579;SDS011;8402;51.466;6.806;2023-07-22T13:01:21;4.35;;;2.40;;
16579;SDS011;8402;51.466;6.806;2023-07-22T13:03:52;4.53;;;2.10;;
16579;SDS011;8402;51.466;6.806;2023-07-22T13:06:21;3.75;;;2.40;;
16579;SDS011;8402;51.466;6.806;2023-07-22T13:08:52;3.72;;;2.47;;
16579;SDS011;8402;51.466;6.806;2023-07-22T13:11:22;3.60;;;2.20;;
16579;SDS011;8402;51.466;6.806;2023-07-22T13:13:52;5.20;;;2.20;;
16579;SDS011;8402;51.466;6.806;2023-07-22T13:16:25;3.70;;;2.17;;
16579;SDS011;8402;51.466;6.806;2023-07-22T13:18:55;3.53;;;2.08;;
16579;SDS011;8402;51.466;6.806;2023-07-22T13:21:27;2.90;;;2.00;;
16579;SDS011;8402;51.466;6.806;2023-07-22T13:23:57;2.88;;;2.10;;
16579;SDS011;8402;51.466;6.806;2023-07-22T13:26:27;5.07;;;2.92;;
16579;SDS011;8402;51.466;6.806;2023-07-22T13:28:56;4.53;;;2.75;;
16579;SDS011;8402;51.466;6.806;2023-07-22T13:31:29;4.45;;;2.70;;
16579;SDS011;8402;51.466;6.806;2023-07-22T13:33:59;4.85;;;2.80;;
16579;SDS011;8402;51.466;6.806;2023-07-22T13:36:29;4.35;;;2.20;;
16579;SDS011;8402;51.466;6.806;2023-07-22T13:38:59;4.45;;;2.40;;
16579;SDS011;8402;51.466;6.806;2023-07-22T13:41:31;5.55;;;2.70;;
16579;SDS011;8402;51.466;6.806;2023-07-22T13:44:01;4.40;;;2.50;;
16579;SDS011;8402;51.466;6.806;2023-07-22T13:46:34;4.93;;;2.47;;
16579;SDS011;8402;51.466;6.806;2023-07-22T13:49:04;4.57;;;2.17;;
16579;SDS011;8402;51.466;6.806;2023-07-22T13:51:34;5.90;;;2.70;;
16579;SDS011;8402;51.466;6.806;2023-07-22T13:54:03;5.78;;;2.60;;
16579;SDS011;8402;51.466;6.806;2023-07-22T13:56:33;3.88;;;2.45;;
16579;SDS011;8402;51.466;6.806;2023-07-22T13:59:03;4.95;;;2.65;;
16579;SDS011;8402;51.466;6.806;2023-07-22T14:01:37;5.78;;;2.58;;
16579;SDS011;8402;51.466;6.806;2023-07-22T14:04:07;2.75;;;2.10;;
16579;SDS011;8402;51.466;6.806;2023-07-22T14:06:36;4.38;;;2.20;;
16579;SDS011;8402;51.466;6.806;2023-07-22T14:09:06;4.18;;;2.20;;
16579;SDS011;8402;51.466;6.806;2023-07-22T14:11:36;5.88;;;2.25;;
16579;SDS011;8402;51.466;6.806;2023-07-22T14:14:08;5.38;;;2.60;;
16579;SDS011;8402;51.466;6.806;2023-07-22T14:16:40;3.45;;;2.58;;
16579;SDS011;8402;51.466;6.806;2023-07-22T14:19:10;4.55;;;2.38;;
16579;SDS011;8402;51.466;6.806;2023-07-22T14:21:40;3.10;;;2.22;;
16579;SDS011;8402;51.466;6.806;2023-07-22T14:24:10;6.35;;;2.40;;
16579;SDS011;8402;51.466;6.806;2023-07-22T14:26:40;4.65;;;2.33;;
16579;SDS011;8402;51.466;6.806;2023-07-22T14:29:10;3.97;;;2.60;;
16579;SDS011;8402;51.466;6.806;2023-07-22T14:31:44;3.65;;;2.47;;
16579;SDS011;8402;51.466;6.806;2023-07-22T14:34:14;2.92;;;2.45;;
16579;SDS011;8402;51.466;6.806;2023-07-22T14:36:44;4.43;;;2.10;;
16579;SDS011;8402;51.466;6.806;2023-07-22T14:39:14;5.88;;;2.50;;
16579;SDS011;8402;51.466;6.806;2023-07-22T14:41:44;4.20;;;2.58;;
16579;SDS011;8402;51.466;6.806;2023-07-22T14:44:13;5.88;;;2.20;;
16579;SDS011;8402;51.466;6.806;2023-07-22T14:46:46;4.50;;;2.58;;
16579;SDS011;8402;51.466;6.806;2023-07-22T14:49:16;5.00;;;2.42;;
16579;SDS011;8402;51.466;6.806;2023-07-22T14:51:46;4.35;;;2.30;;
16579;SDS011;8402;51.466;6.806;2023-07-22T14:54:16;3.53;;;2.60;;
16579;SDS011;8402;51.466;6.806;2023-07-22T14:56:46;5.97;;;2.50;;
16579;SDS011;8402;51.466;6.806;2023-07-22T14:59:16;4.10;;;2.65;;
16579;SDS011;8402;51.466;6.806;2023-07-22T15:01:49;3.60;;;2.40;;
16579;SDS011;8402;51.466;6.806;2023-07-22T15:04:19;3.80;;;2.55;;
16579;SDS011;8402;51.466;6.806;2023-07-22T15:06:49;4.53;;;2.40;;
16579;SDS011;8402;51.466;6.806;2023-07-22T15:09:19;4.07;;;2.47;;
16579;SDS011;8402;51.466;6.806;2023-07-22T15:11:49;5.70;;;2.28;;
16579;SDS011;8402;51.466;6.806;2023-07-22T15:14:19;4.22;;;2.65;;
16579;SDS011;8402;51.466;6.806;2023-07-22T15:16:52;4.72;;;2.40;;
16579;SDS011;8402;51.466;6.806;2023-07-22T15:19:22;3.20;;;2.00;;